createdAt,value
2019-03-28T00:01:09.094Z,3.9
2019-03-28T00:04:08.808Z,3.9
2019-03-28T00:07:08.863Z,3.9
2019-03-28T00:10:08.924Z,3.9
2019-03-28T00:13:08.944Z,3.9
2019-03-28T00:16:09.024Z,3.9
2019-03-28T00:19:09.034Z,3.9
2019-03-28T00:22:08.950Z,3.9
2019-03-28T00:25:09.151Z,3.9
2019-03-28T00:28:09.066Z,3.9
2019-03-28T00:31:09.943Z,3.9
2019-03-28T00:34:09.039Z,3.9
2019-03-28T00:37:09.517Z,3.9
2019-03-28T00:40:08.813Z,3.9
2019-03-28T00:43:08.948Z,3.9
2019-03-28T00:46:08.894Z,3.9
2019-03-28T00:49:09.020Z,3.9
2019-03-28T00:52:08.999Z,3.9
2019-03-28T00:55:08.850Z,3.9
2019-03-28T00:58:09.533Z,3.9
2019-03-28T01:01:08.992Z,3.8
2019-03-28T01:04:08.960Z,3.8
2019-03-28T01:07:09.098Z,3.8
2019-03-28T01:10:09.180Z,3.8
2019-03-28T01:13:08.995Z,3.8
2019-03-28T01:16:08.843Z,3.8
2019-03-28T01:19:09.029Z,3.8
2019-03-28T01:22:09.107Z,3.8
2019-03-28T01:25:09.058Z,3.8
2019-03-28T01:28:09.043Z,3.8
2019-03-28T01:31:08.827Z,3.8
2019-03-28T01:34:08.940Z,3.8
2019-03-28T01:37:08.958Z,3.8
2019-03-28T01:40:09.053Z,3.8
2019-03-28T01:43:09.030Z,3.8
2019-03-28T01:46:09.048Z,3.8
2019-03-28T01:49:08.875Z,3.8
2019-03-28T01:52:08.861Z,3.8
2019-03-28T01:55:08.966Z,3.8
2019-03-28T01:58:08.982Z,3.8
2019-03-28T02:01:09.345Z,3.7
2019-03-28T02:04:09.022Z,3.7
2019-03-28T02:07:08.848Z,3.7
2019-03-28T02:10:09.128Z,3.7
2019-03-28T02:13:08.936Z,3.7
2019-03-28T02:16:09.053Z,3.7
2019-03-28T02:19:09.133Z,3.7
2019-03-28T02:22:09.114Z,3.7
2019-03-28T02:25:08.928Z,3.7
2019-03-28T02:28:08.815Z,3.7
2019-03-28T02:31:08.962Z,3.7
2019-03-28T02:34:09.186Z,3.7
2019-03-28T02:37:08.757Z,3.7
2019-03-28T02:40:08.953Z,3.7
2019-03-28T02:43:08.775Z,3.7
2019-03-28T02:46:08.887Z,3.7
2019-03-28T02:49:09.020Z,3.7
2019-03-28T02:52:09.076Z,3.7
2019-03-28T02:55:09.051Z,3.7
2019-03-28T02:58:09.222Z,3.7
2019-03-28T03:01:08.840Z,3.7
2019-03-28T03:04:09.051Z,3.7
2019-03-28T03:07:08.898Z,3.7
2019-03-28T03:10:09.036Z,3.7
2019-03-28T03:13:09.180Z,3.7
2019-03-28T03:16:08.864Z,3.7
2019-03-28T03:19:08.857Z,3.7
2019-03-28T03:22:09.025Z,3.7
2019-03-28T03:25:09.219Z,3.7
2019-03-28T03:28:08.986Z,3.7
2019-03-28T03:31:09.206Z,3.7
2019-03-28T03:34:08.932Z,3.7
2019-03-28T03:37:08.826Z,3.7
2019-03-28T03:40:08.908Z,3.7
2019-03-28T03:43:08.859Z,3.7
2019-03-28T03:46:08.894Z,3.7
2019-03-28T03:49:09.233Z,3.7
2019-03-28T03:52:08.740Z,3.7
2019-03-28T03:55:08.860Z,3.7
2019-03-28T03:58:19.597Z,3.7
2019-03-28T04:01:09.156Z,3.6
2019-03-28T04:04:09.160Z,3.6
2019-03-28T04:07:08.771Z,3.6
2019-03-28T04:10:09.838Z,3.6
2019-03-28T04:13:08.819Z,3.6
2019-03-28T04:16:08.937Z,3.6
2019-03-28T04:19:08.957Z,3.6
2019-03-28T04:22:10.502Z,3.6
2019-03-28T04:25:08.953Z,3.6
2019-03-28T04:28:08.970Z,3.6
2019-03-28T04:31:09.139Z,3.6
2019-03-28T04:34:10.327Z,3.6
2019-03-28T04:37:08.957Z,3.6
2019-03-28T04:40:09.353Z,3.6
2019-03-28T04:43:08.795Z,3.6
2019-03-28T04:46:08.855Z,3.6
2019-03-28T04:49:08.956Z,3.6
2019-03-28T04:52:08.899Z,3.6
2019-03-28T04:55:09.010Z,3.6
2019-03-28T04:58:08.766Z,3.6
2019-03-28T05:01:08.844Z,3.5
2019-03-28T05:04:08.915Z,3.5
2019-03-28T05:07:09.145Z,3.5
2019-03-28T05:10:09.014Z,3.5
2019-03-28T05:13:08.715Z,3.5
2019-03-28T05:16:08.815Z,3.5
2019-03-28T05:19:08.822Z,3.5
2019-03-28T05:22:09.009Z,3.5
2019-03-28T05:25:08.936Z,3.5
2019-03-28T05:28:08.963Z,3.5
2019-03-28T05:31:08.790Z,3.5
2019-03-28T05:34:08.940Z,3.5
2019-03-28T05:37:09.082Z,3.5
2019-03-28T05:40:08.935Z,3.5
2019-03-28T05:43:09.150Z,3.5
2019-03-28T05:46:08.702Z,3.5
2019-03-28T05:49:08.479Z,3.5
2019-03-28T05:52:12.179Z,3.5
2019-03-28T05:55:08.906Z,3.5
2019-03-28T05:58:10.093Z,3.5
2019-03-28T06:01:08.742Z,3.5
2019-03-28T06:04:08.790Z,3.5
2019-03-28T06:07:10.813Z,3.5
2019-03-28T06:10:08.937Z,3.5
2019-03-28T06:13:08.958Z,3.5
2019-03-28T06:16:08.947Z,3.5
2019-03-28T06:19:08.954Z,3.5
2019-03-28T06:22:08.796Z,3.5
2019-03-28T06:25:08.887Z,3.5
2019-03-28T06:28:08.868Z,3.5
2019-03-28T06:31:08.885Z,3.5
2019-03-28T06:34:08.837Z,3.5
2019-03-28T06:37:08.785Z,3.5
2019-03-28T06:40:08.940Z,3.5
2019-03-28T06:43:08.824Z,3.5
2019-03-28T06:46:09.034Z,3.5
2019-03-28T06:49:08.974Z,3.5
2019-03-28T06:52:08.726Z,3.5
2019-03-28T06:55:08.828Z,3.5
2019-03-28T06:58:08.944Z,3.5
2019-03-28T07:01:08.543Z,3.5
2019-03-28T07:04:08.891Z,3.5
2019-03-28T07:07:08.698Z,3.5
2019-03-28T07:10:08.779Z,3.5
2019-03-28T07:13:08.869Z,3.5
2019-03-28T07:16:08.818Z,3.5
2019-03-28T07:19:08.891Z,3.5
2019-03-28T07:22:08.909Z,3.5
2019-03-28T07:25:08.685Z,3.5
2019-03-28T07:28:09.832Z,3.5
2019-03-28T07:31:08.727Z,3.5
2019-03-28T07:34:08.863Z,3.5
2019-03-28T07:37:08.967Z,3.5
2019-03-28T07:40:09.019Z,3.5
2019-03-28T07:43:08.788Z,3.5
2019-03-28T07:46:08.858Z,3.5
2019-03-28T07:49:08.786Z,3.5
2019-03-28T07:52:08.821Z,3.5
2019-03-28T07:55:08.824Z,3.5
2019-03-28T07:58:09.725Z,3.5
2019-03-28T08:01:08.707Z,3.4
2019-03-28T08:04:08.711Z,3.4
2019-03-28T08:07:08.360Z,3.4
2019-03-28T08:10:08.465Z,3.4
2019-03-28T08:13:08.645Z,3.4
2019-03-28T08:16:08.515Z,3.4
2019-03-28T08:19:08.552Z,3.4
2019-03-28T08:22:08.453Z,3.4
2019-03-28T08:25:14.277Z,3.4
2019-03-28T08:28:08.661Z,3.4
2019-03-28T08:31:08.502Z,3.4
2019-03-28T08:34:08.544Z,3.4
2019-03-28T08:37:08.324Z,3.4
2019-03-28T08:40:08.356Z,3.4
2019-03-28T08:43:08.478Z,3.4
2019-03-28T08:46:09.380Z,3.4
2019-03-28T08:49:08.437Z,3.4
2019-03-28T08:52:12.317Z,3.4
2019-03-28T08:55:10.699Z,3.4
2019-03-28T08:58:08.378Z,3.4
2019-03-28T09:01:08.430Z,3.4
2019-03-28T09:04:08.571Z,3.4
2019-03-28T09:07:08.540Z,3.4
2019-03-28T09:10:08.580Z,3.4
2019-03-28T09:13:08.252Z,3.4
2019-03-28T09:16:08.308Z,3.4
2019-03-28T09:19:08.340Z,3.4
2019-03-28T09:22:08.370Z,3.4
2019-03-28T09:25:08.574Z,3.4
2019-03-28T09:28:08.511Z,3.4
2019-03-28T09:31:20.723Z,3.4
2019-03-28T09:34:08.335Z,3.4
2019-03-28T09:37:08.367Z,3.4
2019-03-28T09:40:08.433Z,3.4
2019-03-28T09:43:08.462Z,3.4
2019-03-28T09:46:08.610Z,3.4
2019-03-28T09:49:08.266Z,3.4
2019-03-28T09:52:08.277Z,3.4
2019-03-28T09:55:08.335Z,3.4
2019-03-28T09:58:08.374Z,3.4
2019-03-28T10:01:08.455Z,3.5
2019-03-28T10:04:08.467Z,3.5
2019-03-28T10:07:08.579Z,3.5
2019-03-28T10:10:09.895Z,3.5
2019-03-28T10:13:08.416Z,3.5
2019-03-28T10:16:10.071Z,3.5
2019-03-28T10:19:08.472Z,3.5
2019-03-28T10:22:08.514Z,3.5
2019-03-28T10:25:08.508Z,3.5
2019-03-28T10:28:08.265Z,3.5
2019-03-28T10:31:17.295Z,3.5
2019-03-28T10:34:08.310Z,3.5
2019-03-28T10:37:08.619Z,3.5
2019-03-28T10:40:08.432Z,3.5
2019-03-28T10:43:08.470Z,3.5
2019-03-28T10:46:08.400Z,3.5
2019-03-28T10:49:08.382Z,3.5
2019-03-28T10:52:12.424Z,3.5
2019-03-28T10:55:08.498Z,3.5
2019-03-28T10:58:20.168Z,3.5
2019-03-28T11:01:08.568Z,3.6
2019-03-28T11:04:08.206Z,3.6
2019-03-28T11:07:08.255Z,3.6
2019-03-28T11:10:08.295Z,3.6
2019-03-28T11:13:10.378Z,3.6
2019-03-28T11:16:08.512Z,3.6
2019-03-28T11:19:08.477Z,3.6
2019-03-28T11:22:08.452Z,3.6
2019-03-28T11:25:08.469Z,3.6
2019-03-28T11:28:08.718Z,3.6
2019-03-28T11:31:08.345Z,3.6
2019-03-28T11:34:08.536Z,3.6
2019-03-28T11:37:28.626Z,3.6
2019-03-28T11:40:09.964Z,3.6
2019-03-28T11:43:08.595Z,3.6
2019-03-28T11:46:08.366Z,3.6
2019-03-28T11:49:08.381Z,3.6
2019-03-28T11:52:08.416Z,3.6
2019-03-28T11:55:08.411Z,3.6
2019-03-28T11:58:08.491Z,3.6
2019-03-28T12:01:08.270Z,3.6
2019-03-28T12:04:08.979Z,3.6
2019-03-28T12:07:08.506Z,3.6
2019-03-28T12:10:08.386Z,3.6
2019-03-28T12:13:08.421Z,3.6
2019-03-28T12:16:08.462Z,3.6
2019-03-28T12:19:08.193Z,3.6
2019-03-28T12:22:09.381Z,3.6
2019-03-28T12:25:08.323Z,3.6
2019-03-28T12:28:08.329Z,3.6
2019-03-28T12:31:08.656Z,3.6
2019-03-28T12:34:08.468Z,3.6
2019-03-28T12:37:08.212Z,3.6
2019-03-28T12:40:08.363Z,3.6
2019-03-28T12:43:08.384Z,3.6
2019-03-28T12:46:08.402Z,3.6
2019-03-28T12:49:08.435Z,3.6
2019-03-28T12:52:08.544Z,3.6
2019-03-28T12:55:08.242Z,3.6
2019-03-28T12:58:08.218Z,3.6
2019-03-28T13:01:08.306Z,3.6
2019-03-28T13:04:08.520Z,3.6
2019-03-28T13:07:08.335Z,3.6
2019-03-28T13:10:08.424Z,3.6
2019-03-28T13:13:08.211Z,3.6
2019-03-28T13:16:08.275Z,3.6
2019-03-28T13:19:08.335Z,3.6
2019-03-28T13:22:08.474Z,3.6
2019-03-28T13:25:08.398Z,3.6
2019-03-28T13:28:08.541Z,3.6
2019-03-28T13:31:08.542Z,3.6
2019-03-28T13:34:08.236Z,3.6
2019-03-28T13:37:08.373Z,3.6
2019-03-28T13:40:08.387Z,3.6
2019-03-28T13:43:08.350Z,3.6
2019-03-28T13:46:08.528Z,3.6
2019-03-28T13:49:08.202Z,3.6
2019-03-28T13:52:08.221Z,3.6
2019-03-28T13:55:08.284Z,3.6
2019-03-28T13:58:08.322Z,3.6
2019-03-28T14:01:08.361Z,3.6
2019-03-28T14:04:08.397Z,3.6
2019-03-28T14:07:08.517Z,3.6
2019-03-28T14:10:08.188Z,3.6
2019-03-28T14:13:08.351Z,3.6
2019-03-28T14:16:08.327Z,3.6
2019-03-28T14:19:08.291Z,3.6
2019-03-28T14:22:08.292Z,3.6
2019-03-28T14:25:08.368Z,3.6
2019-03-28T14:28:08.226Z,3.6
2019-03-28T14:31:08.370Z,3.6
2019-03-28T14:34:08.260Z,3.6
2019-03-28T14:37:08.318Z,3.6
2019-03-28T14:40:08.491Z,3.6
2019-03-28T14:43:11.261Z,3.6
2019-03-28T14:46:08.503Z,3.6
2019-03-28T14:49:09.234Z,3.6
2019-03-28T14:52:08.893Z,3.6
2019-03-28T14:55:08.223Z,3.6
2019-03-28T14:58:08.311Z,3.6
2019-03-28T15:01:08.483Z,3.8
2019-03-28T15:04:08.455Z,3.8
2019-03-28T15:07:08.379Z,3.8
2019-03-28T16:00:24.452Z,3.3
2019-03-28T16:03:24.641Z,3.3
2019-03-28T16:06:24.621Z,3.3
2019-03-28T16:09:24.643Z,3.3
2019-03-28T16:12:24.698Z,3.3
2019-03-28T16:15:24.571Z,3.3
2019-03-28T16:18:24.960Z,3.3
2019-03-28T16:21:27.401Z,3.3
2019-03-28T16:24:24.613Z,3.3
2019-03-28T16:27:24.482Z,3.3
2019-03-28T16:30:26.114Z,3.3
2019-03-28T16:33:24.610Z,3.3
2019-03-28T16:36:24.470Z,3.3
2019-03-28T16:39:24.923Z,3.3
2019-03-28T16:42:24.644Z,3.3
2019-03-28T16:45:24.643Z,3.3
2019-03-28T16:48:24.761Z,3.3
2019-03-28T16:51:26.525Z,3.3
2019-03-28T16:54:24.498Z,3.3
2019-03-28T16:57:24.610Z,3.3
2019-03-28T17:00:24.614Z,4.2
2019-03-28T17:03:24.690Z,4.2
2019-03-28T17:06:24.618Z,4.2
2019-03-28T17:09:24.766Z,4.2
2019-03-28T17:12:24.577Z,4.2
2019-03-28T17:15:26.228Z,4.2
2019-03-28T17:18:24.715Z,4.2
2019-03-28T17:21:24.603Z,4.2
2019-03-28T17:24:24.648Z,4.2
2019-03-28T17:27:24.707Z,4.2
2019-03-28T17:30:24.817Z,4.2
2019-03-28T17:33:24.639Z,4.2
2019-03-28T17:36:27.456Z,4.2
2019-03-28T17:39:24.614Z,4.2
2019-03-28T17:42:24.590Z,4.2
2019-03-28T17:45:26.305Z,4.2
2019-03-28T17:48:24.654Z,4.2
2019-03-28T17:51:24.511Z,4.2
2019-03-28T17:54:24.559Z,4.2
2019-03-28T17:57:24.770Z,4.2
2019-03-28T18:00:28.746Z,3.7
2019-03-28T18:03:32.033Z,3.7
2019-03-28T18:06:24.680Z,3.7
2019-03-28T18:09:24.478Z,3.7
2019-03-28T18:12:24.583Z,3.7
2019-03-28T18:15:24.368Z,3.7
2019-03-28T18:18:24.533Z,3.7
2019-03-28T18:21:24.624Z,3.7
2019-03-28T18:24:24.628Z,3.7
2019-03-28T18:27:24.601Z,3.7
2019-03-28T18:30:24.483Z,3.7
2019-03-28T18:33:24.580Z,3.7
2019-03-28T18:36:24.725Z,3.7
2019-03-28T18:39:24.726Z,3.7
2019-03-28T18:42:25.900Z,3.7
2019-03-28T18:45:24.434Z,3.7
2019-03-28T18:48:38.789Z,3.7
2019-03-28T18:51:25.613Z,3.7
2019-03-28T18:54:24.401Z,3.7
2019-03-28T18:57:24.731Z,3.7
2019-03-28T19:00:24.711Z,3.3
2019-03-28T19:03:24.443Z,3.3
2019-03-28T19:06:24.492Z,3.3
2019-03-28T19:09:24.536Z,3.3
2019-03-28T19:12:24.675Z,3.3
2019-03-28T19:15:24.886Z,3.3
2019-03-28T19:18:26.224Z,3.3
2019-03-28T19:21:25.685Z,3.3
2019-03-28T19:24:24.398Z,3.3
2019-03-28T19:27:24.519Z,3.3
2019-03-28T19:30:24.499Z,3.3
2019-03-28T19:33:24.673Z,3.3
2019-03-28T19:36:24.509Z,3.3
2019-03-28T19:39:24.474Z,3.3
2019-03-28T19:42:24.387Z,3.3
2019-03-28T19:45:24.497Z,3.3
2019-03-28T19:48:24.682Z,3.3
2019-03-28T19:51:24.574Z,3.3
2019-03-28T19:54:24.762Z,3.3
2019-03-28T19:57:24.779Z,3.3
2019-03-28T20:00:24.559Z,2.9
2019-03-28T20:03:24.570Z,2.9
2019-03-28T20:06:24.963Z,2.9
2019-03-28T20:09:24.649Z,2.9
2019-03-28T20:12:24.947Z,2.9
2019-03-28T20:15:24.625Z,2.9
2019-03-28T20:18:24.583Z,2.9
2019-03-28T20:21:24.742Z,2.9
2019-03-28T20:24:24.584Z,2.9
2019-03-28T20:27:24.573Z,2.9
2019-03-28T20:30:24.648Z,2.9
2019-03-28T20:33:25.708Z,2.9
2019-03-28T20:36:44.722Z,2.9
2019-03-28T20:39:24.542Z,2.9
2019-03-28T20:42:24.633Z,2.9
2019-03-28T20:45:24.842Z,2.9
2019-03-28T20:48:24.623Z,2.9
2019-03-28T20:51:27.077Z,2.9
2019-03-28T20:54:24.552Z,2.9
2019-03-28T20:57:24.497Z,2.9
2019-03-28T21:00:24.481Z,2.9
2019-03-28T21:03:24.580Z,2.9
2019-03-28T21:06:24.722Z,2.9
2019-03-28T21:09:24.602Z,2.9
2019-03-28T21:12:24.452Z,2.9
2019-03-28T21:15:24.572Z,2.9
2019-03-28T21:18:24.426Z,2.9
2019-03-28T21:21:24.869Z,2.9
2019-03-28T21:24:24.592Z,2.9
2019-03-28T21:27:24.659Z,2.9
2019-03-28T21:30:27.737Z,2.9
2019-03-28T21:33:25.605Z,2.9
2019-03-28T21:36:32.783Z,2.9
2019-03-28T21:39:24.611Z,2.9
2019-03-28T21:42:24.590Z,2.9
2019-03-28T21:45:24.694Z,2.9
2019-03-28T21:48:24.437Z,2.9
2019-03-28T21:51:24.565Z,2.9
2019-03-28T21:54:25.517Z,2.9
2019-03-28T21:57:24.616Z,2.9
2019-03-28T22:00:24.639Z,2.8
2019-03-28T22:03:24.663Z,2.8
2019-03-28T22:06:24.493Z,2.8
2019-03-28T22:09:25.313Z,2.8
2019-03-28T22:12:24.522Z,2.8
2019-03-28T22:15:24.513Z,2.8
2019-03-28T22:18:24.326Z,2.8
2019-03-28T22:21:28.074Z,2.8
2019-03-28T22:24:24.386Z,2.8
2019-03-28T22:27:24.561Z,2.8
2019-03-28T22:30:24.570Z,2.8
2019-03-28T22:33:24.308Z,2.8
2019-03-28T22:36:24.496Z,2.8
2019-03-28T22:39:24.435Z,2.8
2019-03-28T22:42:24.449Z,2.8
2019-03-28T22:45:24.519Z,2.8
2019-03-28T22:48:24.520Z,2.8
2019-03-28T22:51:24.637Z,2.8
2019-03-28T22:54:24.652Z,2.8
2019-03-28T22:57:24.253Z,2.8
2019-03-28T23:00:24.376Z,2.8
2019-03-28T23:03:24.525Z,2.8
2019-03-28T23:06:24.507Z,2.8
2019-03-28T23:09:25.450Z,2.8
2019-03-28T23:12:24.505Z,2.8
2019-03-28T23:15:24.353Z,2.8
2019-03-28T23:18:24.375Z,2.8
2019-03-28T23:21:24.451Z,2.8
2019-03-28T23:24:24.343Z,2.8
2019-03-28T23:27:24.570Z,2.8
2019-03-28T23:30:24.500Z,2.8
2019-03-28T23:33:25.465Z,2.8
2019-03-28T23:36:24.349Z,2.8
2019-03-28T23:39:24.313Z,2.8
2019-03-28T23:42:24.585Z,2.8
2019-03-28T23:45:24.474Z,2.8
2019-03-28T23:48:24.516Z,2.8
2019-03-28T23:51:25.340Z,2.8
2019-03-28T23:54:24.386Z,2.8
2019-03-28T23:57:24.394Z,2.8
